Portada
METAR-TAF:

METAR-TAF

Aeroports :

Berlin, Nova Hampshire, Estats Units d'Amèrica

latitud: 44-34-34N, longitud: 071-10-43W, altitud: 353 m

Observació

L'informe es va fer fa 1 hora i 3 minuts, a les 18:52 UTC
Vent 6 kt amb direcció variable amb ràfegues de 18 kt
Temperatura 21°C
Humitat 46%
Pressió 1006 hPa
Visibilitat: 16.1 km
Cel ennuvolat a una alçada de 4700 ft
Cel cobert a una alçada de 8000 ft

METAR: KBML 231852Z AUTO VRB06G18KT 10SM BKN047 OVC080 21/09 A2972 RMK AO2 SLP065 T02110094 $

Hora: 15:55 (19:55 UTC)


TAF: manca

Observacions i pronòstics meteorològics de més de 4000 aeroports (METAR i TAF).

Les estacions disponibles són els punts grocs i vermells al mapa.

Posi el ratolí al punt desitjat per veure el nom de l'estació.

Feu clic per veure les observacions i els pronòstics meteorològics.

Per canviar el mapa: feu clic els botons verds amb una creu de color negre per apropar; al botó verd amb un guió per allunyar la imatge; o en les fletxes verdes per a mapes adjacents.


METAR-TAF: